sensor_id;sensor_type;location;lat;lon;timestamp;pressure;altitude;pressure_sealevel;temperature;humidity
68873;BME280;55907;50.806;12.882;2023-09-12T00:02:52;971.1;;;18.7;67.9
68873;BME280;55907;50.806;12.882;2023-09-12T00:05:54;971.1;;;18.6;68.4
68873;BME280;55907;50.806;12.882;2023-09-12T00:08:55;971.2;;;18.5;69.6
68873;BME280;55907;50.806;12.882;2023-09-12T00:11:56;971.1;;;18.4;70.1
68873;BME280;55907;50.806;12.882;2023-09-12T00:14:58;971.1;;;18.3;71.4
68873;BME280;55907;50.806;12.882;2023-09-12T00:17:59;971.1;;;18.2;71.4
68873;BME280;55907;50.806;12.882;2023-09-12T00:24:02;971.1;;;18.1;72.8
68873;BME280;55907;50.806;12.882;2023-09-12T00:27:04;971.0;;;18.1;72.2
68873;BME280;55907;50.806;12.882;2023-09-12T00:30:05;971.0;;;18.0;73.4
68873;BME280;55907;50.806;12.882;2023-09-12T00:33:06;971.0;;;18.0;72.4
68873;BME280;55907;50.806;12.882;2023-09-12T00:36:08;971.0;;;18.0;72.9
68873;BME280;55907;50.806;12.882;2023-09-12T00:39:09;971.0;;;17.9;73.6
68873;BME280;55907;50.806;12.882;2023-09-12T00:42:11;971.0;;;17.9;73.8
68873;BME280;55907;50.806;12.882;2023-09-12T00:45:12;971.0;;;17.8;73.8
68873;BME280;55907;50.806;12.882;2023-09-12T00:48:14;971.0;;;17.8;73.2
68873;BME280;55907;50.806;12.882;2023-09-12T00:51:15;970.9;;;17.7;74.6
68873;BME280;55907;50.806;12.882;2023-09-12T00:54:16;970.9;;;17.7;74.7
68873;BME280;55907;50.806;12.882;2023-09-12T00:57:18;970.9;;;17.7;74.5
68873;BME280;55907;50.806;12.882;2023-09-12T01:00:20;970.9;;;17.7;73.7
68873;BME280;55907;50.806;12.882;2023-09-12T01:03:21;970.9;;;17.7;73.5
68873;BME280;55907;50.806;12.882;2023-09-12T01:06:24;971.0;;;17.7;73.8
68873;BME280;55907;50.806;12.882;2023-09-12T01:09:24;971.0;;;17.7;73.9
68873;BME280;55907;50.806;12.882;2023-09-12T01:12:25;971.0;;;17.7;73.8
68873;BME280;55907;50.806;12.882;2023-09-12T01:15:26;971.0;;;17.6;73.7
68873;BME280;55907;50.806;12.882;2023-09-12T01:18:28;971.0;;;17.6;73.5
68873;BME280;55907;50.806;12.882;2023-09-12T01:21:41;971.0;;;17.6;73.2
68873;BME280;55907;50.806;12.882;2023-09-12T01:24:42;971.1;;;17.5;72.4
68873;BME280;55907;50.806;12.882;2023-09-12T01:27:34;971.0;;;17.5;72.7
68873;BME280;55907;50.806;12.882;2023-09-12T01:30:34;971.0;;;17.5;73.3
68873;BME280;55907;50.806;12.882;2023-09-12T01:33:35;971.0;;;17.5;72.8
68873;BME280;55907;50.806;12.882;2023-09-12T01:36:37;971.1;;;17.4;72.8
68873;BME280;55907;50.806;12.882;2023-09-12T01:39:38;971.0;;;17.4;72.4
68873;BME280;55907;50.806;12.882;2023-09-12T01:42:42;971.1;;;17.4;72.9
68873;BME280;55907;50.806;12.882;2023-09-12T01:45:42;971.1;;;17.4;72.7
68873;BME280;55907;50.806;12.882;2023-09-12T01:48:43;971.1;;;17.4;73.8
68873;BME280;55907;50.806;12.882;2023-09-12T01:51:44;971.1;;;17.4;72.6
68873;BME280;55907;50.806;12.882;2023-09-12T01:54:46;971.1;;;17.4;73.0
68873;BME280;55907;50.806;12.882;2023-09-12T01:57:46;971.1;;;17.4;72.9
68873;BME280;55907;50.806;12.882;2023-09-12T02:00:48;971.1;;;17.4;72.5
68873;BME280;55907;50.806;12.882;2023-09-12T02:03:49;971.1;;;17.4;73.5
68873;BME280;55907;50.806;12.882;2023-09-12T02:06:51;971.1;;;17.3;73.2
68873;BME280;55907;50.806;12.882;2023-09-12T02:09:52;971.1;;;17.3;72.8
68873;BME280;55907;50.806;12.882;2023-09-12T02:12:54;971.1;;;17.3;72.4
68873;BME280;55907;50.806;12.882;2023-09-12T02:15:58;971.0;;;17.3;72.8
68873;BME280;55907;50.806;12.882;2023-09-12T02:18:57;971.1;;;17.3;71.6
68873;BME280;55907;50.806;12.882;2023-09-12T02:21:58;971.1;;;17.3;71.4
68873;BME280;55907;50.806;12.882;2023-09-12T02:25:00;971.1;;;17.4;71.2
68873;BME280;55907;50.806;12.882;2023-09-12T02:28:01;971.0;;;17.4;72.6
68873;BME280;55907;50.806;12.882;2023-09-12T02:31:02;971.1;;;17.4;73.5
68873;BME280;55907;50.806;12.882;2023-09-12T02:34:04;971.0;;;17.4;74.1
68873;BME280;55907;50.806;12.882;2023-09-12T02:37:05;971.1;;;17.4;72.6
68873;BME280;55907;50.806;12.882;2023-09-12T02:40:07;971.0;;;17.3;72.9
68873;BME280;55907;50.806;12.882;2023-09-12T02:43:08;971.0;;;17.4;72.8
68873;BME280;55907;50.806;12.882;2023-09-12T02:46:10;971.0;;;17.4;73.3
68873;BME280;55907;50.806;12.882;2023-09-12T02:49:11;971.0;;;17.4;73.1
68873;BME280;55907;50.806;12.882;2023-09-12T02:52:12;971.0;;;17.3;72.9
68873;BME280;55907;50.806;12.882;2023-09-12T02:55:14;970.9;;;17.3;72.5
68873;BME280;55907;50.806;12.882;2023-09-12T02:58:15;970.9;;;17.3;71.8
68873;BME280;55907;50.806;12.882;2023-09-12T03:01:17;970.9;;;17.4;71.2
68873;BME280;55907;50.806;12.882;2023-09-12T03:04:18;970.8;;;17.4;71.2
68873;BME280;55907;50.806;12.882;2023-09-12T03:07:20;970.8;;;17.4;72.2
68873;BME280;55907;50.806;12.882;2023-09-12T03:10:21;970.8;;;17.4;71.7
68873;BME280;55907;50.806;12.882;2023-09-12T03:13:24;970.8;;;17.3;71.9
68873;BME280;55907;50.806;12.882;2023-09-12T03:16:24;970.7;;;17.3;71.9
68873;BME280;55907;50.806;12.882;2023-09-12T03:19:25;970.7;;;17.3;71.5
68873;BME280;55907;50.806;12.882;2023-09-12T03:22:27;970.7;;;17.3;71.3
68873;BME280;55907;50.806;12.882;2023-09-12T03:25:28;970.7;;;17.2;72.6
68873;BME280;55907;50.806;12.882;2023-09-12T03:28:30;970.7;;;17.2;72.7
68873;BME280;55907;50.806;12.882;2023-09-12T03:31:31;970.7;;;17.2;72.5
68873;BME280;55907;50.806;12.882;2023-09-12T03:34:33;970.7;;;17.2;72.9
68873;BME280;55907;50.806;12.882;2023-09-12T03:37:34;970.7;;;17.2;71.2
68873;BME280;55907;50.806;12.882;2023-09-12T03:40:35;970.7;;;17.1;72.3
68873;BME280;55907;50.806;12.882;2023-09-12T03:43:37;970.7;;;17.1;72.3
68873;BME280;55907;50.806;12.882;2023-09-12T03:46:38;970.8;;;17.1;72.0
68873;BME280;55907;50.806;12.882;2023-09-12T03:49:40;970.8;;;17.0;72.4
68873;BME280;55907;50.806;12.882;2023-09-12T03:52:41;970.8;;;16.9;72.3
68873;BME280;55907;50.806;12.882;2023-09-12T03:55:43;970.8;;;16.9;73.3
68873;BME280;55907;50.806;12.882;2023-09-12T03:58:44;970.7;;;16.8;72.8
68873;BME280;55907;50.806;12.882;2023-09-12T04:01:46;970.8;;;16.8;73.0
68873;BME280;55907;50.806;12.882;2023-09-12T04:04:47;970.7;;;16.8;73.5
68873;BME280;55907;50.806;12.882;2023-09-12T04:07:48;970.8;;;16.7;74.2
68873;BME280;55907;50.806;12.882;2023-09-12T04:10:50;970.8;;;16.7;74.5
68873;BME280;55907;50.806;12.882;2023-09-12T04:13:51;970.8;;;16.6;75.2
68873;BME280;55907;50.806;12.882;2023-09-12T04:16:53;970.8;;;16.6;75.4
68873;BME280;55907;50.806;12.882;2023-09-12T04:19:54;970.8;;;16.6;75.1
68873;BME280;55907;50.806;12.882;2023-09-12T04:22:56;970.8;;;16.6;74.7
68873;BME280;55907;50.806;12.882;2023-09-12T04:25:57;970.7;;;16.6;73.1
68873;BME280;55907;50.806;12.882;2023-09-12T04:28:59;970.8;;;16.6;74.3
68873;BME280;55907;50.806;12.882;2023-09-12T04:32:01;970.8;;;16.6;74.7
68873;BME280;55907;50.806;12.882;2023-09-12T04:35:01;970.8;;;16.6;72.8
68873;BME280;55907;50.806;12.882;2023-09-12T04:38:03;970.8;;;16.7;73.4
68873;BME280;55907;50.806;12.882;2023-09-12T04:41:04;970.7;;;16.8;73.6
68873;BME280;55907;50.806;12.882;2023-09-12T04:44:06;970.7;;;16.8;74.5
68873;BME280;55907;50.806;12.882;2023-09-12T04:47:07;970.8;;;16.8;73.9
68873;BME280;55907;50.806;12.882;2023-09-12T04:50:09;970.8;;;16.8;75.9
68873;BME280;55907;50.806;12.882;2023-09-12T04:53:10;970.7;;;16.8;74.9
68873;BME280;55907;50.806;12.882;2023-09-12T04:56:11;970.7;;;16.8;75.0
68873;BME280;55907;50.806;12.882;2023-09-12T04:59:13;970.6;;;16.8;74.3
68873;BME280;55907;50.806;12.882;2023-09-12T05:02:14;970.7;;;16.8;74.5
68873;BME280;55907;50.806;12.882;2023-09-12T05:05:16;970.6;;;16.9;72.7
68873;BME280;55907;50.806;12.882;2023-09-12T05:08:17;970.6;;;17.0;73.7
68873;BME280;55907;50.806;12.882;2023-09-12T05:11:19;970.7;;;17.0;73.9
68873;BME280;55907;50.806;12.882;2023-09-12T05:14:20;970.7;;;17.1;74.1
68873;BME280;55907;50.806;12.882;2023-09-12T05:17:21;970.7;;;17.1;74.2
68873;BME280;55907;50.806;12.882;2023-09-12T05:20:23;970.8;;;17.2;74.4
68873;BME280;55907;50.806;12.882;2023-09-12T05:23:24;970.8;;;17.3;73.8
68873;BME280;55907;50.806;12.882;2023-09-12T05:26:26;970.8;;;17.3;74.5
68873;BME280;55907;50.806;12.882;2023-09-12T05:29:27;970.8;;;17.5;74.0
68873;BME280;55907;50.806;12.882;2023-09-12T05:32:29;970.8;;;17.5;73.0
68873;BME280;55907;50.806;12.882;2023-09-12T05:35:30;970.9;;;17.7;73.3
68873;BME280;55907;50.806;12.882;2023-09-12T05:38:32;970.9;;;17.9;71.7
68873;BME280;55907;50.806;12.882;2023-09-12T05:41:33;970.9;;;18.1;71.5
68873;BME280;55907;50.806;12.882;2023-09-12T05:44:34;971.0;;;18.2;70.7
68873;BME280;55907;50.806;12.882;2023-09-12T05:47:36;971.0;;;18.2;70.7
68873;BME280;55907;50.806;12.882;2023-09-12T05:50:37;971.0;;;18.2;70.9
68873;BME280;55907;50.806;12.882;2023-09-12T05:53:39;971.0;;;18.2;71.0
68873;BME280;55907;50.806;12.882;2023-09-12T05:56:40;971.1;;;18.4;69.8
68873;BME280;55907;50.806;12.882;2023-09-12T05:59:42;971.1;;;18.4;69.5
68873;BME280;55907;50.806;12.882;2023-09-12T06:02:43;971.1;;;18.4;69.8
68873;BME280;55907;50.806;12.882;2023-09-12T06:05:45;971.1;;;18.5;69.1
68873;BME280;55907;50.806;12.882;2023-09-12T06:08:46;971.2;;;18.7;69.1
68873;BME280;55907;50.806;12.882;2023-09-12T06:11:47;971.3;;;19.0;67.8
68873;BME280;55907;50.806;12.882;2023-09-12T06:14:49;971.2;;;19.2;67.0
68873;BME280;55907;50.806;12.882;2023-09-12T06:17:50;971.2;;;19.5;66.0
68873;BME280;55907;50.806;12.882;2023-09-12T06:20:52;971.2;;;19.9;65.5
68873;BME280;55907;50.806;12.882;2023-09-12T06:24:11;971.2;;;20.2;64.4
68873;BME280;55907;50.806;12.882;2023-09-12T06:26:54;971.2;;;20.4;63.7
68873;BME280;55907;50.806;12.882;2023-09-12T06:29:56;971.2;;;20.5;63.5
68873;BME280;55907;50.806;12.882;2023-09-12T06:32:57;971.2;;;20.6;63.1
68873;BME280;55907;50.806;12.882;2023-09-12T06:35:59;971.2;;;20.7;62.9
68873;BME280;55907;50.806;12.882;2023-09-12T06:39:00;971.2;;;20.8;62.5
68873;BME280;55907;50.806;12.882;2023-09-12T06:42:02;971.3;;;21.0;61.9
68873;BME280;55907;50.806;12.882;2023-09-12T06:45:03;971.3;;;21.1;61.4
68873;BME280;55907;50.806;12.882;2023-09-12T06:48:05;971.3;;;21.3;61.5
68873;BME280;55907;50.806;12.882;2023-09-12T06:51:08;971.3;;;21.4;61.3
68873;BME280;55907;50.806;12.882;2023-09-12T06:54:07;971.3;;;21.5;60.9
68873;BME280;55907;50.806;12.882;2023-09-12T06:57:09;971.3;;;21.4;60.8
68873;BME280;55907;50.806;12.882;2023-09-12T07:00:10;971.4;;;21.4;60.4
68873;BME280;55907;50.806;12.882;2023-09-12T07:03:11;971.4;;;21.4;60.9
68873;BME280;55907;50.806;12.882;2023-09-12T07:06:13;971.4;;;21.5;61.0
68873;BME280;55907;50.806;12.882;2023-09-12T07:09:14;971.3;;;21.7;60.7
68873;BME280;55907;50.806;12.882;2023-09-12T07:12:16;971.3;;;21.9;60.8
68873;BME280;55907;50.806;12.882;2023-09-12T07:15:17;971.4;;;22.0;60.6
68873;BME280;55907;50.806;12.882;2023-09-12T07:18:18;971.4;;;22.2;60.4
68873;BME280;55907;50.806;12.882;2023-09-12T07:21:20;971.4;;;22.4;60.3
68873;BME280;55907;50.806;12.882;2023-09-12T07:24:24;971.4;;;22.5;60.1
68873;BME280;55907;50.806;12.882;2023-09-12T07:27:23;971.4;;;22.6;59.5
68873;BME280;55907;50.806;12.882;2023-09-12T07:30:24;971.4;;;22.8;59.4
68873;BME280;55907;50.806;12.882;2023-09-12T07:33:25;971.4;;;22.9;59.4
68873;BME280;55907;50.806;12.882;2023-09-12T07:36:27;971.4;;;23.0;59.2
68873;BME280;55907;50.806;12.882;2023-09-12T07:39:28;971.4;;;23.1;58.7
68873;BME280;55907;50.806;12.882;2023-09-12T07:42:30;971.4;;;23.2;58.6
68873;BME280;55907;50.806;12.882;2023-09-12T07:45:31;971.4;;;23.4;58.6
68873;BME280;55907;50.806;12.882;2023-09-12T07:48:32;971.4;;;23.5;58.8
68873;BME280;55907;50.806;12.882;2023-09-12T07:51:34;971.4;;;23.7;58.8
68873;BME280;55907;50.806;12.882;2023-09-12T07:54:35;971.4;;;23.9;58.7
68873;BME280;55907;50.806;12.882;2023-09-12T07:57:36;971.4;;;24.1;58.4
68873;BME280;55907;50.806;12.882;2023-09-12T08:00:38;971.4;;;24.2;57.9
68873;BME280;55907;50.806;12.882;2023-09-12T08:03:41;971.4;;;24.4;57.1
68873;BME280;55907;50.806;12.882;2023-09-12T08:06:41;971.4;;;24.6;56.8
68873;BME280;55907;50.806;12.882;2023-09-12T08:09:51;971.3;;;24.8;55.9
68873;BME280;55907;50.806;12.882;2023-09-12T08:12:43;971.4;;;24.9;55.7
68873;BME280;55907;50.806;12.882;2023-09-12T08:15:45;971.4;;;25.1;55.8
68873;BME280;55907;50.806;12.882;2023-09-12T08:18:46;971.4;;;25.4;55.1
68873;BME280;55907;50.806;12.882;2023-09-12T08:21:47;971.4;;;25.5;54.3
68873;BME280;55907;50.806;12.882;2023-09-12T08:24:49;971.4;;;25.7;53.8
68873;BME280;55907;50.806;12.882;2023-09-12T08:27:50;971.4;;;25.8;53.4
68873;BME280;55907;50.806;12.882;2023-09-12T08:30:51;971.4;;;26.0;52.6
68873;BME280;55907;50.806;12.882;2023-09-12T08:33:53;971.4;;;26.0;52.3
68873;BME280;55907;50.806;12.882;2023-09-12T08:36:54;971.5;;;26.1;51.5
68873;BME280;55907;50.806;12.882;2023-09-12T08:39:56;971.5;;;26.3;51.3
68873;BME280;55907;50.806;12.882;2023-09-12T08:42:57;971.5;;;26.5;51.1
68873;BME280;55907;50.806;12.882;2023-09-12T08:45:58;971.5;;;26.7;49.7
68873;BME280;55907;50.806;12.882;2023-09-12T08:49:00;971.5;;;26.9;47.4
68873;BME280;55907;50.806;12.882;2023-09-12T08:52:01;971.5;;;27.2;47.2
68873;BME280;55907;50.806;12.882;2023-09-12T08:55:03;971.5;;;27.8;45.6
68873;BME280;55907;50.806;12.882;2023-09-12T08:58:05;971.5;;;28.3;43.9
68873;BME280;55907;50.806;12.882;2023-09-12T09:01:06;971.4;;;28.9;43.8
68873;BME280;55907;50.806;12.882;2023-09-12T09:04:06;971.4;;;29.9;41.3
68873;BME280;55907;50.806;12.882;2023-09-12T09:07:09;971.4;;;31.2;39.1
68873;BME280;55907;50.806;12.882;2023-09-12T09:10:15;971.5;;;32.3;33.9
68873;BME280;55907;50.806;12.882;2023-09-12T09:13:12;971.5;;;33.4;33.4
68873;BME280;55907;50.806;12.882;2023-09-12T09:16:12;971.4;;;34.4;32.0
68873;BME280;55907;50.806;12.882;2023-09-12T09:19:13;971.5;;;35.2;30.5
68873;BME280;55907;50.806;12.882;2023-09-12T09:22:14;971.5;;;35.9;30.6
68873;BME280;55907;50.806;12.882;2023-09-12T09:25:16;971.5;;;36.5;29.1
68873;BME280;55907;50.806;12.882;2023-09-12T09:28:18;971.5;;;37.3;27.6
68873;BME280;55907;50.806;12.882;2023-09-12T09:31:18;971.5;;;38.0;26.6
68873;BME280;55907;50.806;12.882;2023-09-12T09:34:21;971.5;;;38.2;24.8
68873;BME280;55907;50.806;12.882;2023-09-12T09:37:21;971.5;;;38.1;25.3
68873;BME280;55907;50.806;12.882;2023-09-12T09:40:23;971.6;;;38.0;25.4
68873;BME280;55907;50.806;12.882;2023-09-12T09:43:24;971.6;;;38.0;27.2
68873;BME280;55907;50.806;12.882;2023-09-12T09:46:25;971.6;;;37.7;26.5
68873;BME280;55907;50.806;12.882;2023-09-12T09:49:27;971.6;;;37.6;25.9
68873;BME280;55907;50.806;12.882;2023-09-12T09:52:28;971.6;;;37.6;25.3
68873;BME280;55907;50.806;12.882;2023-09-12T09:55:29;971.6;;;37.7;26.2
68873;BME280;55907;50.806;12.882;2023-09-12T09:58:31;971.6;;;37.9;26.7
68873;BME280;55907;50.806;12.882;2023-09-12T10:01:33;971.6;;;38.2;28.2
68873;BME280;55907;50.806;12.882;2023-09-12T10:04:34;971.7;;;38.1;26.0
68873;BME280;55907;50.806;12.882;2023-09-12T10:07:37;971.7;;;37.8;24.9
68873;BME280;55907;50.806;12.882;2023-09-12T10:10:38;971.7;;;37.7;26.7
68873;BME280;55907;50.806;12.882;2023-09-12T10:13:39;971.6;;;37.4;26.2
68873;BME280;55907;50.806;12.882;2023-09-12T10:16:44;971.6;;;37.1;25.7
68873;BME280;55907;50.806;12.882;2023-09-12T10:19:43;971.6;;;36.5;26.5
68873;BME280;55907;50.806;12.882;2023-09-12T10:22:48;971.5;;;36.0;27.7
68873;BME280;55907;50.806;12.882;2023-09-12T10:25:43;971.5;;;35.8;27.9
68873;BME280;55907;50.806;12.882;2023-09-12T10:28:45;971.5;;;35.6;28.6
68873;BME280;55907;50.806;12.882;2023-09-12T10:31:47;971.5;;;35.3;29.0
68873;BME280;55907;50.806;12.882;2023-09-12T10:34:48;971.5;;;35.1;29.7
68873;BME280;55907;50.806;12.882;2023-09-12T10:37:50;971.5;;;34.9;29.5
68873;BME280;55907;50.806;12.882;2023-09-12T10:40:52;971.4;;;34.5;29.8
68873;BME280;55907;50.806;12.882;2023-09-12T10:43:53;971.4;;;34.5;30.2
68873;BME280;55907;50.806;12.882;2023-09-12T10:46:53;971.4;;;34.5;30.5
68873;BME280;55907;50.806;12.882;2023-09-12T10:49:54;971.4;;;34.4;29.8
68873;BME280;55907;50.806;12.882;2023-09-12T10:52:56;971.4;;;34.2;30.8
68873;BME280;55907;50.806;12.882;2023-09-12T10:55:58;971.3;;;34.1;30.7
68873;BME280;55907;50.806;12.882;2023-09-12T10:59:09;971.4;;;33.8;31.5
68873;BME280;55907;50.806;12.882;2023-09-12T11:05:02;971.3;;;33.4;31.2
68873;BME280;55907;50.806;12.882;2023-09-12T11:08:02;971.3;;;33.3;32.1
68873;BME280;55907;50.806;12.882;2023-09-12T11:11:17;971.2;;;33.3;30.6
68873;BME280;55907;50.806;12.882;2023-09-12T11:14:05;971.3;;;33.3;31.4
68873;BME280;55907;50.806;12.882;2023-09-12T11:17:20;971.2;;;33.2;30.3
68873;BME280;55907;50.806;12.882;2023-09-12T11:20:08;971.2;;;33.4;30.4
68873;BME280;55907;50.806;12.882;2023-09-12T11:23:10;971.2;;;33.3;30.0
68873;BME280;55907;50.806;12.882;2023-09-12T11:26:10;971.2;;;33.4;31.0
68873;BME280;55907;50.806;12.882;2023-09-12T11:29:12;971.1;;;33.5;30.8
68873;BME280;55907;50.806;12.882;2023-09-12T11:32:25;971.1;;;33.5;30.4
68873;BME280;55907;50.806;12.882;2023-09-12T11:35:14;971.0;;;33.7;30.1
68873;BME280;55907;50.806;12.882;2023-09-12T11:38:26;971.0;;;33.6;29.2
68873;BME280;55907;50.806;12.882;2023-09-12T11:44:19;970.9;;;33.2;30.2
68873;BME280;55907;50.806;12.882;2023-09-12T11:47:19;971.0;;;33.0;29.7
68873;BME280;55907;50.806;12.882;2023-09-12T11:50:29;971.0;;;32.9;30.4
68873;BME280;55907;50.806;12.882;2023-09-12T11:53:24;970.9;;;33.0;30.3
68873;BME280;55907;50.806;12.882;2023-09-12T11:56:23;970.9;;;33.1;29.6
68873;BME280;55907;50.806;12.882;2023-09-12T11:59:25;970.9;;;33.0;29.5
68873;BME280;55907;50.806;12.882;2023-09-12T12:02:26;970.9;;;33.0;30.0
68873;BME280;55907;50.806;12.882;2023-09-12T12:05:28;970.8;;;32.9;30.7
68873;BME280;55907;50.806;12.882;2023-09-12T12:08:29;970.9;;;32.9;32.9
68873;BME280;55907;50.806;12.882;2023-09-12T12:11:30;970.9;;;32.9;32.6
68873;BME280;55907;50.806;12.882;2023-09-12T12:14:33;970.8;;;32.9;30.3
68873;BME280;55907;50.806;12.882;2023-09-12T12:17:33;970.8;;;32.9;30.2
68873;BME280;55907;50.806;12.882;2023-09-12T12:20:34;970.8;;;32.9;31.2
68873;BME280;55907;50.806;12.882;2023-09-12T12:23:35;970.8;;;33.0;31.6
68873;BME280;55907;50.806;12.882;2023-09-12T12:26:37;970.8;;;33.0;31.5
68873;BME280;55907;50.806;12.882;2023-09-12T12:29:38;970.8;;;32.9;30.5
68873;BME280;55907;50.806;12.882;2023-09-12T12:32:40;970.8;;;32.8;31.1
68873;BME280;55907;50.806;12.882;2023-09-12T12:35:41;970.8;;;32.8;31.0
68873;BME280;55907;50.806;12.882;2023-09-12T12:38:46;970.8;;;32.7;30.1
68873;BME280;55907;50.806;12.882;2023-09-12T12:41:44;970.8;;;32.7;32.6
68873;BME280;55907;50.806;12.882;2023-09-12T12:44:45;970.8;;;32.8;32.2
68873;BME280;55907;50.806;12.882;2023-09-12T12:47:51;970.8;;;32.7;30.7
68873;BME280;55907;50.806;12.882;2023-09-12T12:50:47;970.8;;;32.8;30.8
68873;BME280;55907;50.806;12.882;2023-09-12T12:53:50;970.7;;;32.8;32.1
68873;BME280;55907;50.806;12.882;2023-09-12T12:56:51;970.7;;;32.7;31.3
68873;BME280;55907;50.806;12.882;2023-09-12T12:59:51;970.7;;;32.6;31.0
68873;BME280;55907;50.806;12.882;2023-09-12T13:02:53;970.7;;;32.5;30.3
68873;BME280;55907;50.806;12.882;2023-09-12T13:05:54;970.7;;;32.3;29.7
68873;BME280;55907;50.806;12.882;2023-09-12T13:08:55;970.6;;;32.2;30.7
68873;BME280;55907;50.806;12.882;2023-09-12T13:11:57;970.6;;;32.1;31.0
68873;BME280;55907;50.806;12.882;2023-09-12T13:14:58;970.6;;;32.1;31.7
68873;BME280;55907;50.806;12.882;2023-09-12T13:18:00;970.6;;;32.2;32.1
68873;BME280;55907;50.806;12.882;2023-09-12T13:21:01;970.6;;;32.3;30.8
68873;BME280;55907;50.806;12.882;2023-09-12T13:24:02;970.6;;;32.3;30.6
68873;BME280;55907;50.806;12.882;2023-09-12T13:27:04;970.6;;;32.3;30.5
68873;BME280;55907;50.806;12.882;2023-09-12T13:30:06;970.6;;;32.3;30.3
68873;BME280;55907;50.806;12.882;2023-09-12T13:33:06;970.5;;;32.4;30.6
68873;BME280;55907;50.806;12.882;2023-09-12T13:36:07;970.5;;;32.4;30.6
68873;BME280;55907;50.806;12.882;2023-09-12T13:39:09;970.4;;;32.5;29.3
68873;BME280;55907;50.806;12.882;2023-09-12T13:42:10;970.4;;;32.5;29.3
68873;BME280;55907;50.806;12.882;2023-09-12T13:45:12;970.3;;;32.5;29.4
68873;BME280;55907;50.806;12.882;2023-09-12T13:48:13;970.4;;;32.5;29.3
68873;BME280;55907;50.806;12.882;2023-09-12T13:51:14;970.4;;;32.4;29.1
68873;BME280;55907;50.806;12.882;2023-09-12T13:54:16;970.4;;;32.3;30.0
68873;BME280;55907;50.806;12.882;2023-09-12T13:57:17;970.3;;;32.2;30.4
68873;BME280;55907;50.806;12.882;2023-09-12T14:00:18;970.3;;;32.1;30.9
68873;BME280;55907;50.806;12.882;2023-09-12T14:03:20;970.3;;;32.1;30.1
68873;BME280;55907;50.806;12.882;2023-09-12T14:06:21;970.3;;;32.1;30.1
68873;BME280;55907;50.806;12.882;2023-09-12T14:09:22;970.3;;;32.0;30.7
68873;BME280;55907;50.806;12.882;2023-09-12T14:12:24;970.3;;;32.0;30.7
68873;BME280;55907;50.806;12.882;2023-09-12T14:15:25;970.3;;;31.8;30.5
68873;BME280;55907;50.806;12.882;2023-09-12T14:18:26;970.2;;;31.7;31.2
68873;BME280;55907;50.806;12.882;2023-09-12T14:21:28;970.2;;;31.6;32.0
68873;BME280;55907;50.806;12.882;2023-09-12T14:24:29;970.2;;;31.4;31.7
68873;BME280;55907;50.806;12.882;2023-09-12T14:27:30;970.3;;;31.2;32.1
68873;BME280;55907;50.806;12.882;2023-09-12T14:30:32;970.3;;;31.1;32.6
68873;BME280;55907;50.806;12.882;2023-09-12T14:33:33;970.3;;;31.0;33.0
68873;BME280;55907;50.806;12.882;2023-09-12T14:36:34;970.3;;;31.0;32.6
68873;BME280;55907;50.806;12.882;2023-09-12T14:39:36;970.3;;;31.0;33.2
68873;BME280;55907;50.806;12.882;2023-09-12T14:42:37;970.3;;;31.1;33.1
68873;BME280;55907;50.806;12.882;2023-09-12T14:45:39;970.3;;;31.2;32.8
68873;BME280;55907;50.806;12.882;2023-09-12T14:48:40;970.3;;;31.2;32.9
68873;BME280;55907;50.806;12.882;2023-09-12T14:51:41;970.2;;;31.4;32.8
68873;BME280;55907;50.806;12.882;2023-09-12T14:54:42;970.3;;;31.4;32.4
68873;BME280;55907;50.806;12.882;2023-09-12T14:57:44;970.3;;;31.4;32.1
68873;BME280;55907;50.806;12.882;2023-09-12T15:00:45;970.2;;;31.5;32.6
68873;BME280;55907;50.806;12.882;2023-09-12T15:03:46;970.2;;;31.5;32.7
68873;BME280;55907;50.806;12.882;2023-09-12T15:06:48;970.1;;;31.4;33.0
68873;BME280;55907;50.806;12.882;2023-09-12T15:09:49;970.1;;;31.2;33.2
68873;BME280;55907;50.806;12.882;2023-09-12T15:12:50;970.2;;;31.1;33.5
68873;BME280;55907;50.806;12.882;2023-09-12T15:15:52;970.2;;;31.0;33.7
68873;BME280;55907;50.806;12.882;2023-09-12T15:18:53;970.2;;;31.0;34.1
68873;BME280;55907;50.806;12.882;2023-09-12T15:21:54;970.1;;;30.9;34.4
68873;BME280;55907;50.806;12.882;2023-09-12T15:24:56;970.1;;;30.9;34.6
68873;BME280;55907;50.806;12.882;2023-09-12T15:27:58;970.1;;;30.8;34.8
68873;BME280;55907;50.806;12.882;2023-09-12T15:30:58;970.1;;;30.5;35.0
68873;BME280;55907;50.806;12.882;2023-09-12T15:34:00;970.2;;;30.5;35.4
68873;BME280;55907;50.806;12.882;2023-09-12T15:37:10;970.1;;;30.4;34.5
68873;BME280;55907;50.806;12.882;2023-09-12T15:40:03;970.1;;;30.3;34.7
68873;BME280;55907;50.806;12.882;2023-09-12T15:43:04;970.1;;;30.2;35.1
68873;BME280;55907;50.806;12.882;2023-09-12T15:46:05;970.0;;;30.1;35.7
68873;BME280;55907;50.806;12.882;2023-09-12T15:49:07;970.0;;;30.0;36.1
68873;BME280;55907;50.806;12.882;2023-09-12T15:52:08;970.1;;;29.9;37.4
68873;BME280;55907;50.806;12.882;2023-09-12T15:55:10;970.1;;;29.7;38.5
68873;BME280;55907;50.806;12.882;2023-09-12T15:58:11;970.1;;;29.6;39.3
68873;BME280;55907;50.806;12.882;2023-09-12T16:01:12;970.1;;;29.5;39.7
68873;BME280;55907;50.806;12.882;2023-09-12T16:04:13;970.1;;;29.4;40.1
68873;BME280;55907;50.806;12.882;2023-09-12T16:07:15;970.1;;;29.2;40.4
68873;BME280;55907;50.806;12.882;2023-09-12T16:10:16;970.1;;;29.1;41.1
68873;BME280;55907;50.806;12.882;2023-09-12T16:13:17;970.0;;;29.0;41.3
68873;BME280;55907;50.806;12.882;2023-09-12T16:16:20;970.0;;;28.9;41.6
68873;BME280;55907;50.806;12.882;2023-09-12T16:19:20;970.0;;;28.8;41.7
68873;BME280;55907;50.806;12.882;2023-09-12T16:22:21;969.9;;;28.7;41.9
68873;BME280;55907;50.806;12.882;2023-09-12T16:25:23;969.9;;;28.7;42.2
68873;BME280;55907;50.806;12.882;2023-09-12T16:28:24;969.8;;;28.7;42.5
68873;BME280;55907;50.806;12.882;2023-09-12T16:31:25;969.9;;;28.6;42.7
68873;BME280;55907;50.806;12.882;2023-09-12T16:34:27;969.9;;;28.5;43.1
68873;BME280;55907;50.806;12.882;2023-09-12T16:37:28;969.9;;;28.5;43.1
68873;BME280;55907;50.806;12.882;2023-09-12T16:40:30;969.9;;;28.3;43.2
68873;BME280;55907;50.806;12.882;2023-09-12T16:43:31;969.9;;;28.2;43.7
68873;BME280;55907;50.806;12.882;2023-09-12T16:46:33;969.9;;;28.1;44.1
68873;BME280;55907;50.806;12.882;2023-09-12T16:49:34;969.9;;;28.0;43.5
68873;BME280;55907;50.806;12.882;2023-09-12T16:52:35;970.0;;;27.9;43.7
68873;BME280;55907;50.806;12.882;2023-09-12T16:55:36;970.0;;;27.9;43.7
68873;BME280;55907;50.806;12.882;2023-09-12T16:58:38;970.0;;;27.7;44.8
68873;BME280;55907;50.806;12.882;2023-09-12T17:01:39;970.0;;;27.6;44.8
68873;BME280;55907;50.806;12.882;2023-09-12T17:04:41;970.0;;;27.5;44.7